ITY3321 LIPZ-LIRF
Flight info
| Callsign | ITY3321 |
|---|---|
| Flight time | 0h 43m |
| Altitude | 35000 |
| Route | CHI DCT DIPVO DCT NIKMA DCT RITEB |
| Aircraft | A320/M-SDE3FGHIRWY/LB1 |
Departure
| Time | 2026-05-04 17:03 |
|---|---|
| Airport | Venice Marco Polo Airport (LIPZ) |
Arrival
| Time | 2026-05-04 17:47 |
|---|---|
| Airport | Rome–Fiumicino Leonardo da Vinci International Airport (LIRF) |
| Time | Latitude | Longitude | Altitude | Speed | Heading |
|---|---|---|---|---|---|
| 2026-05-04 16:25 | 45.50492 | 12.34222 | 16 ft | 0 kts | 267° |
| 2026-05-04 16:55 | 45.50492 | 12.34229 | 16 ft | 2 kts | 267° |
| 2026-05-04 16:56 | 45.50494 | 12.34278 | 16 ft | 2 kts | 267° |
| 2026-05-04 16:56 | 45.50505 | 12.34327 | 16 ft | 0 kts | 181° |
| 2026-05-04 17:00 | 45.50335 | 12.34353 | 16 ft | 14 kts | 177° |
| 2026-05-04 17:00 | 45.49975 | 12.34148 | 14 ft | 26 kts | 223° |
| 2026-05-04 17:01 | 45.49696 | 12.33792 | 18 ft | 26 kts | 221° |
| 2026-05-04 17:01 | 45.49503 | 12.33621 | 18 ft | 15 kts | 154° |
| 2026-05-04 17:02 | 45.49441 | 12.33807 | 16 ft | 8 kts | 52° |
| 2026-05-04 17:02 | 45.49755 | 12.34217 | 13 ft | 91 kts | 42° |
| 2026-05-04 17:03 | 45.50384 | 12.35027 | 13 ft | 150 kts | 42° |
| 2026-05-04 17:03 | 45.51229 | 12.36122 | 372 ft | 167 kts | 46° |
| 2026-05-04 17:03 | 45.52942 | 12.38514 | 1467 ft | 185 kts | 54° |
| 2026-05-04 17:04 | 45.53497 | 12.42247 | 2280 ft | 209 kts | 102° |
| 2026-05-04 17:04 | 45.53055 | 12.46414 | 3587 ft | 216 kts | 100° |
| 2026-05-04 17:05 | 45.52608 | 12.50729 | 4939 ft | 223 kts | 102° |
| 2026-05-04 17:05 | 45.50664 | 12.53872 | 6062 ft | 229 kts | 168° |
| 2026-05-04 17:06 | 45.47249 | 12.53337 | 6868 ft | 268 kts | 193° |
| 2026-05-04 17:06 | 45.45411 | 12.52881 | 7694 ft | 272 kts | 192° |
| 2026-05-04 17:07 | 45.41636 | 12.51970 | 9537 ft | 276 kts | 191° |
| 2026-05-04 17:07 | 45.40993 | 12.51816 | 9844 ft | 278 kts | 191° |
| 2026-05-04 17:07 | 45.37688 | 12.51026 | 10613 ft | 308 kts | 191° |
| 2026-05-04 17:07 | 45.35522 | 12.50512 | 11136 ft | 320 kts | 190° |
| 2026-05-04 17:08 | 45.33340 | 12.49807 | 11867 ft | 324 kts | 200° |
| 2026-05-04 17:08 | 45.29345 | 12.46687 | 13438 ft | 331 kts | 210° |
| 2026-05-04 17:08 | 45.27347 | 12.45010 | 14160 ft | 335 kts | 210° |
| 2026-05-04 17:09 | 45.26014 | 12.43892 | 14601 ft | 338 kts | 210° |
| 2026-05-04 17:09 | 45.23978 | 12.42188 | 14958 ft | 341 kts | 210° |
| 2026-05-04 17:09 | 45.21937 | 12.40480 | 15050 ft | 341 kts | 210° |
| 2026-05-04 17:10 | 45.17802 | 12.37019 | 16060 ft | 347 kts | 210° |
| 2026-05-04 17:10 | 45.11432 | 12.31733 | 18005 ft | 360 kts | 211° |
| 2026-05-04 17:11 | 45.09278 | 12.29978 | 18581 ft | 364 kts | 208° |
| 2026-05-04 17:11 | 45.06910 | 12.28646 | 19087 ft | 370 kts | 197° |
| 2026-05-04 17:11 | 45.01716 | 12.27868 | 20262 ft | 379 kts | 184° |
| 2026-05-04 17:12 | 44.99072 | 12.27744 | 20858 ft | 381 kts | 184° |
| 2026-05-04 17:12 | 44.93708 | 12.27458 | 21989 ft | 388 kts | 184° |
| 2026-05-04 17:13 | 44.85533 | 12.27018 | 23620 ft | 398 kts | 184° |
| 2026-05-04 17:14 | 44.77157 | 12.26585 | 24991 ft | 404 kts | 184° |
| 2026-05-04 17:14 | 44.74327 | 12.26443 | 25429 ft | 407 kts | 184° |
| 2026-05-04 17:14 | 44.68634 | 12.26153 | 26250 ft | 412 kts | 184° |
| 2026-05-04 17:15 | 44.65801 | 12.26006 | 26654 ft | 414 kts | 184° |
| 2026-05-04 17:15 | 44.60014 | 12.25704 | 27459 ft | 418 kts | 184° |
| 2026-05-04 17:16 | 44.54169 | 12.25408 | 28234 ft | 422 kts | 184° |
| 2026-05-04 17:16 | 44.45255 | 12.24965 | 29218 ft | 431 kts | 184° |
| 2026-05-04 17:17 | 44.42248 | 12.24811 | 29559 ft | 433 kts | 184° |
| 2026-05-04 17:17 | 44.33172 | 12.24336 | 30449 ft | 440 kts | 185° |
| 2026-05-04 17:18 | 44.30095 | 12.24181 | 30659 ft | 444 kts | 185° |
| 2026-05-04 17:18 | 44.23893 | 12.23867 | 31135 ft | 448 kts | 185° |
| 2026-05-04 17:19 | 44.17635 | 12.23556 | 31643 ft | 451 kts | 185° |
| 2026-05-04 17:19 | 44.11377 | 12.23244 | 32353 ft | 449 kts | 186° |
| 2026-05-04 17:20 | 44.05144 | 12.22931 | 33047 ft | 447 kts | 186° |
| 2026-05-04 17:20 | 43.98945 | 12.22624 | 33752 ft | 445 kts | 186° |
| 2026-05-04 17:20 | 43.95853 | 12.22470 | 34083 ft | 444 kts | 186° |
| 2026-05-04 17:21 | 43.89665 | 12.22155 | 34621 ft | 445 kts | 187° |
| 2026-05-04 17:21 | 43.83471 | 12.21836 | 35069 ft | 445 kts | 187° |
| 2026-05-04 17:22 | 43.77352 | 12.21537 | 35114 ft | 437 kts | 187° |
| 2026-05-04 17:23 | 43.65254 | 12.20945 | 35115 ft | 436 kts | 188° |
| 2026-05-04 17:24 | 43.56148 | 12.20477 | 34904 ft | 441 kts | 189° |
| 2026-05-04 17:24 | 43.46856 | 12.20010 | 32842 ft | 436 kts | 188° |
| 2026-05-04 17:25 | 43.43833 | 12.19868 | 32282 ft | 432 kts | 187° |
| 2026-05-04 17:25 | 43.37866 | 12.19576 | 31207 ft | 426 kts | 187° |
| 2026-05-04 17:26 | 43.32018 | 12.19285 | 30148 ft | 420 kts | 187° |
| 2026-05-04 17:26 | 43.23393 | 12.18858 | 28597 ft | 406 kts | 186° |
| 2026-05-04 17:27 | 43.17785 | 12.18592 | 27646 ft | 398 kts | 186° |
| 2026-05-04 17:27 | 43.12295 | 12.18322 | 26749 ft | 391 kts | 187° |
| 2026-05-04 17:28 | 43.06926 | 12.18056 | 25843 ft | 386 kts | 186° |
| 2026-05-04 17:29 | 42.98931 | 12.17677 | 24406 ft | 380 kts | 185° |
| 2026-05-04 17:29 | 42.91027 | 12.17320 | 22837 ft | 377 kts | 184° |
| 2026-05-04 17:30 | 42.83223 | 12.16958 | 21329 ft | 371 kts | 185° |
| 2026-05-04 17:31 | 42.78104 | 12.16524 | 19929 ft | 370 kts | 189° |
| 2026-05-04 17:31 | 42.71052 | 12.15230 | 19007 ft | 320 kts | 192° |
| 2026-05-04 17:32 | 42.66750 | 12.14378 | 18025 ft | 304 kts | 192° |
| 2026-05-04 17:33 | 42.60649 | 12.13212 | 16470 ft | 287 kts | 192° |
| 2026-05-04 17:33 | 42.58707 | 12.12843 | 15983 ft | 285 kts | 192° |
| 2026-05-04 17:34 | 42.52685 | 12.11708 | 14502 ft | 289 kts | 192° |
| 2026-05-04 17:34 | 42.50709 | 12.11336 | 14030 ft | 284 kts | 192° |
| 2026-05-04 17:35 | 42.44990 | 12.10265 | 12483 ft | 271 kts | 191° |
| 2026-05-04 17:35 | 42.41310 | 12.09586 | 11474 ft | 262 kts | 190° |
| 2026-05-04 17:35 | 42.39509 | 12.09313 | 10984 ft | 259 kts | 183° |
| 2026-05-04 17:36 | 42.37725 | 12.09597 | 10501 ft | 258 kts | 167° |
| 2026-05-04 17:36 | 42.36017 | 12.10317 | 10017 ft | 255 kts | 165° |
| 2026-05-04 17:36 | 42.34330 | 12.11039 | 9498 ft | 251 kts | 165° |
| 2026-05-04 17:36 | 42.32674 | 12.11743 | 8984 ft | 247 kts | 165° |
| 2026-05-04 17:37 | 42.31044 | 12.12435 | 8464 ft | 243 kts | 164° |
| 2026-05-04 17:37 | 42.29442 | 12.13115 | 7965 ft | 240 kts | 164° |
| 2026-05-04 17:37 | 42.27859 | 12.13786 | 7527 ft | 238 kts | 164° |
| 2026-05-04 17:37 | 42.26291 | 12.14446 | 7164 ft | 238 kts | 164° |
| 2026-05-04 17:38 | 42.24690 | 12.14962 | 6801 ft | 236 kts | 176° |
| 2026-05-04 17:38 | 42.23056 | 12.15128 | 6441 ft | 235 kts | 176° |
| 2026-05-04 17:38 | 42.21421 | 12.15299 | 6048 ft | 235 kts | 175° |
| 2026-05-04 17:38 | 42.19789 | 12.15471 | 5670 ft | 234 kts | 175° |
| 2026-05-04 17:39 | 42.16592 | 12.15798 | 4955 ft | 222 kts | 175° |
| 2026-05-04 17:39 | 42.15072 | 12.15952 | 4607 ft | 218 kts | 175° |
| 2026-05-04 17:39 | 42.13565 | 12.16104 | 4303 ft | 216 kts | 175° |
| 2026-05-04 17:40 | 42.12073 | 12.16251 | 4008 ft | 214 kts | 175° |
| 2026-05-04 17:40 | 42.10600 | 12.16397 | 3712 ft | 210 kts | 175° |
| 2026-05-04 17:40 | 42.09160 | 12.16541 | 3472 ft | 206 kts | 176° |
| 2026-05-04 17:40 | 42.07749 | 12.16696 | 3221 ft | 202 kts | 173° |
| 2026-05-04 17:41 | 42.06398 | 12.17052 | 3098 ft | 194 kts | 166° |
| 2026-05-04 17:41 | 42.05103 | 12.17543 | 3088 ft | 194 kts | 164° |
| 2026-05-04 17:41 | 42.03813 | 12.18074 | 3089 ft | 191 kts | 163° |
| 2026-05-04 17:41 | 42.02589 | 12.18589 | 3085 ft | 179 kts | 164° |
| 2026-05-04 17:42 | 42.01421 | 12.19080 | 3035 ft | 173 kts | 164° |
| 2026-05-04 17:42 | 42.00271 | 12.19564 | 3020 ft | 173 kts | 164° |
| 2026-05-04 17:42 | 41.99132 | 12.20043 | 2941 ft | 170 kts | 164° |
| 2026-05-04 17:42 | 41.98009 | 12.20515 | 2769 ft | 167 kts | 164° |
| 2026-05-04 17:43 | 41.96927 | 12.20971 | 2557 ft | 162 kts | 165° |
| 2026-05-04 17:43 | 41.95859 | 12.21421 | 2356 ft | 159 kts | 164° |
| 2026-05-04 17:43 | 41.94818 | 12.21859 | 2152 ft | 154 kts | 164° |
| 2026-05-04 17:43 | 41.93807 | 12.22284 | 1947 ft | 149 kts | 164° |
| 2026-05-04 17:44 | 41.92838 | 12.22691 | 1743 ft | 142 kts | 165° |
| 2026-05-04 17:44 | 41.91927 | 12.23074 | 1543 ft | 133 kts | 165° |
| 2026-05-04 17:44 | 41.91052 | 12.23441 | 1390 ft | 131 kts | 165° |
| 2026-05-04 17:44 | 41.90198 | 12.23799 | 1226 ft | 129 kts | 163° |
| 2026-05-04 17:45 | 41.89339 | 12.24160 | 1049 ft | 129 kts | 163° |
| 2026-05-04 17:45 | 41.88486 | 12.24518 | 861 ft | 129 kts | 165° |
| 2026-05-04 17:45 | 41.87631 | 12.24876 | 694 ft | 128 kts | 165° |
| 2026-05-04 17:45 | 41.86779 | 12.25232 | 509 ft | 131 kts | 164° |
| 2026-05-04 17:46 | 41.85909 | 12.25591 | 323 ft | 129 kts | 163° |
| 2026-05-04 17:46 | 41.85052 | 12.25952 | 154 ft | 128 kts | 162° |
| 2026-05-04 17:46 | 41.84203 | 12.26313 | 29 ft | 125 kts | 162° |
| 2026-05-04 17:46 | 41.83482 | 12.26619 | 13 ft | 86 kts | 162° |
| 2026-05-04 17:47 | 41.83075 | 12.26790 | 11 ft | 36 kts | 162° |
| 2026-05-04 17:47 | 41.82857 | 12.26865 | 13 ft | 31 kts | 173° |
| 2026-05-04 17:47 | 41.82646 | 12.26851 | 11 ft | 31 kts | 192° |
| 2026-05-04 17:47 | 41.82436 | 12.26781 | 11 ft | 31 kts | 189° |
| 2026-05-04 17:48 | 41.82228 | 12.26819 | 11 ft | 31 kts | 162° |
| 2026-05-04 17:48 | 41.82025 | 12.26902 | 13 ft | 31 kts | 162° |
| 2026-05-04 17:48 | 41.81823 | 12.26989 | 12 ft | 30 kts | 162° |
| 2026-05-04 17:48 | 41.81622 | 12.27077 | 12 ft | 30 kts | 163° |
| 2026-05-04 17:49 | 41.81419 | 12.27162 | 12 ft | 31 kts | 162° |
| 2026-05-04 17:49 | 41.81213 | 12.27246 | 12 ft | 31 kts | 163° |
| 2026-05-04 17:49 | 41.81011 | 12.27331 | 13 ft | 30 kts | 162° |
| 2026-05-04 17:49 | 41.80801 | 12.27328 | 13 ft | 31 kts | 190° |
| 2026-05-04 17:50 | 41.80639 | 12.27172 | 14 ft | 31 kts | 249° |
| 2026-05-04 17:50 | 41.80567 | 12.26903 | 13 ft | 32 kts | 250° |
| 2026-05-04 17:50 | 41.80491 | 12.26629 | 15 ft | 28 kts | 249° |
| 2026-05-04 17:50 | 41.80440 | 12.26438 | 15 ft | 19 kts | 249° |
| 2026-05-04 17:51 | 41.80327 | 12.26381 | 14 ft | 20 kts | 160° |
| 2026-05-04 17:51 | 41.80184 | 12.26389 | 16 ft | 22 kts | 203° |
| 2026-05-04 17:51 | 41.80039 | 12.26300 | 14 ft | 24 kts | 204° |
| 2026-05-04 17:51 | 41.79885 | 12.26205 | 14 ft | 22 kts | 204° |
| 2026-05-04 17:52 | 41.79780 | 12.26128 | 15 ft | 16 kts | 227° |
| 2026-05-04 17:52 | 41.79789 | 12.26000 | 15 ft | 12 kts | 294° |
| 2026-05-04 17:52 | 41.79822 | 12.25906 | 14 ft | 11 kts | 293° |
| 2026-05-04 17:52 | 41.79804 | 12.25827 | 15 ft | 9 kts | 217° |
| 2026-05-04 17:53 | 41.79754 | 12.25792 | 14 ft | 7 kts | 205° |
| 2026-05-04 17:53 | 41.79732 | 12.25787 | 14 ft | 4 kts | 171° |
| 2026-05-04 17:53 | 41.79718 | 12.25809 | 14 ft | 3 kts | 122° |
| 2026-05-04 17:53 | 41.79711 | 12.25827 | 14 ft | 2 kts | 116° |
| 2026-05-04 17:54 | 41.79707 | 12.25838 | 16 ft | 1 kts | 114° |
| 2026-05-04 17:54 | 41.79707 | 12.25840 | 14 ft | 0 kts | 114° |